Terminal Aerodrome Forecast
Issued by NWS Des Moines, IA

Home | Current Version | Previous Version | Text Only | Print | Product List | Glossary On
Versions: 1 2 3 4 5 6 7 8 9 10 11 12 13 14 15 16 17 18 19 20 21 22
000
FTUS43 KDMX 230539
TAFALO
TAF
KALO 230539Z 2306/2406 29004KT P6SM SCT080 SCT090
     FM231200 34006KT P6SM OVC040
     FM231600 35008KT P6SM VCSH BKN050
     FM240000 35008KT P6SM BKN050
     FM240300 35006KT P6SM BKN030=

USA.gov is the U.S. government's official web portal to all federal, state and local government web resources and services.